sensor_id;sensor_type;location;lat;lon;timestamp;pressure;altitude;pressure_sealevel;temperature;humidity
51439;BME280;38816;51.142;-0.974;2022-08-11T00:00:08;100858.75;;;17.27;65.26
51439;BME280;38816;51.142;-0.974;2022-08-11T00:02:38;100863.94;;;17.27;66.11
51439;BME280;38816;51.142;-0.974;2022-08-11T00:05:08;100862.22;;;17.29;66.54
51439;BME280;38816;51.142;-0.974;2022-08-11T00:07:52;100869.16;;;17.27;66.73
51439;BME280;38816;51.142;-0.974;2022-08-11T00:10:19;100870.00;;;17.28;67.49
51439;BME280;38816;51.142;-0.974;2022-08-11T00:12:55;100870.91;;;17.25;67.73
51439;BME280;38816;51.142;-0.974;2022-08-11T00:15:28;100860.50;;;17.22;68.19
51439;BME280;38816;51.142;-0.974;2022-08-11T00:18:02;100858.75;;;17.24;68.66
51439;BME280;38816;51.142;-0.974;2022-08-11T00:20:30;100853.56;;;17.19;69.13
51439;BME280;38816;51.142;-0.974;2022-08-11T00:23:02;100856.16;;;17.24;69.28
51439;BME280;38816;51.142;-0.974;2022-08-11T00:25:38;100856.16;;;17.18;69.39
51439;BME280;38816;51.142;-0.974;2022-08-11T00:28:31;100848.38;;;17.21;69.49
51439;BME280;38816;51.142;-0.974;2022-08-11T00:31:03;100850.13;;;17.13;69.82
51439;BME280;38816;51.142;-0.974;2022-08-11T00:33:40;100851.81;;;17.11;70.12
51439;BME280;38816;51.142;-0.974;2022-08-11T00:36:09;100840.56;;;17.06;70.28
51439;BME280;38816;51.142;-0.974;2022-08-11T00:38:37;100852.72;;;17.08;70.57
51439;BME280;38816;51.142;-0.974;2022-08-11T00:41:10;100844.91;;;17.01;71.64
51439;BME280;38816;51.142;-0.974;2022-08-11T00:49:08;100852.72;;;17.02;72.81
51439;BME280;38816;51.142;-0.974;2022-08-11T01:00:14;100849.25;;;16.82;74.31
51439;BME280;38816;51.142;-0.974;2022-08-11T01:10:53;100844.88;;;16.67;76.17
51439;BME280;38816;51.142;-0.974;2022-08-11T01:24:55;100826.69;;;16.53;80.33
51439;BME280;38816;51.142;-0.974;2022-08-11T01:35:48;100834.47;;;16.61;80.47
51439;BME280;38816;51.142;-0.974;2022-08-11T01:55:31;100835.22;;;16.03;78.63
51439;BME280;38816;51.142;-0.974;2022-08-11T01:58:07;100829.06;;;15.83;77.88
51439;BME280;38816;51.142;-0.974;2022-08-11T02:04:49;100831.47;;;15.46;77.58
51439;BME280;38816;51.142;-0.974;2022-08-11T02:07:00;100825.34;;;15.36;78.39
51439;BME280;38816;51.142;-0.974;2022-08-11T02:12:46;100831.38;;;15.32;80.27
51439;BME280;38816;51.142;-0.974;2022-08-11T02:15:25;100835.72;;;15.39;80.82
51439;BME280;38816;51.142;-0.974;2022-08-11T02:20:36;100828.88;;;15.51;82.71
51439;BME280;38816;51.142;-0.974;2022-08-11T02:23:42;100827.19;;;15.56;83.84
51439;BME280;38816;51.142;-0.974;2022-08-11T02:26:22;100821.13;;;15.55;84.65
51439;BME280;38816;51.142;-0.974;2022-08-11T02:31:37;100812.63;;;15.79;87.61
51439;BME280;38816;51.142;-0.974;2022-08-11T02:37:17;100803.97;;;15.69;87.83
51439;BME280;38816;51.142;-0.974;2022-08-11T02:40:13;100815.19;;;15.67;87.79
51439;BME280;38816;51.142;-0.974;2022-08-11T02:45:27;100802.09;;;15.49;87.55
51439;BME280;38816;51.142;-0.974;2022-08-11T02:54:04;100817.38;;;15.04;84.20
51439;BME280;38816;51.142;-0.974;2022-08-11T03:02:06;100819.34;;;14.38;82.20
51439;BME280;38816;51.142;-0.974;2022-08-11T03:07:31;100811.44;;;14.23;82.52
51439;BME280;38816;51.142;-0.974;2022-08-11T03:10:07;100807.09;;;14.22;82.61
51439;BME280;38816;51.142;-0.974;2022-08-11T03:12:48;100812.25;;;14.22;82.06
51439;BME280;38816;51.142;-0.974;2022-08-11T03:16:19;100803.59;;;14.17;82.58
51439;BME280;38816;51.142;-0.974;2022-08-11T03:25:00;100807.09;;;14.22;83.64
51439;BME280;38816;51.142;-0.974;2022-08-11T03:30:30;100809.63;;;14.17;84.22
51439;BME280;38816;51.142;-0.974;2022-08-11T03:33:17;100807.03;;;14.16;84.80
51439;BME280;38816;51.142;-0.974;2022-08-11T03:36:09;100804.41;;;14.13;85.41
51439;BME280;38816;51.142;-0.974;2022-08-11T03:39:09;100803.59;;;14.14;85.65
51439;BME280;38816;51.142;-0.974;2022-08-11T03:47:22;100790.72;;;14.22;86.46
51439;BME280;38816;51.142;-0.974;2022-08-11T03:55:57;100769.06;;;14.12;85.68
51439;BME280;38816;51.142;-0.974;2022-08-11T04:04:12;100774.19;;;14.09;86.24
51439;BME280;38816;51.142;-0.974;2022-08-11T04:16:06;100783.63;;;14.02;85.96
51439;BME280;38816;51.142;-0.974;2022-08-11T04:30:14;100782.66;;;13.96;86.15
51439;BME280;38816;51.142;-0.974;2022-08-11T04:41:42;100785.91;;;13.76;86.55
51439;BME280;38816;51.142;-0.974;2022-08-11T04:48:05;100784.13;;;13.72;86.86
51439;BME280;38816;51.142;-0.974;2022-08-11T04:56:51;100772.06;;;13.70;86.44
51439;BME280;38816;51.142;-0.974;2022-08-11T05:11:49;100767.53;;;13.55;85.71
51439;BME280;38816;51.142;-0.974;2022-08-11T05:14:20;100783.09;;;13.58;85.70
51439;BME280;38816;51.142;-0.974;2022-08-11T05:17:14;100771.78;;;13.50;86.21
51439;BME280;38816;51.142;-0.974;2022-08-11T05:19:59;100780.44;;;13.55;86.61
51439;BME280;38816;51.142;-0.974;2022-08-11T05:22:48;100791.69;;;13.58;86.67
51439;BME280;38816;51.142;-0.974;2022-08-11T05:25:34;100796.94;;;13.63;87.06
51439;BME280;38816;51.142;-0.974;2022-08-11T05:31:11;100790.16;;;13.71;88.07
51439;BME280;38816;51.142;-0.974;2022-08-11T05:34:00;100786.81;;;13.80;88.87
51439;BME280;38816;51.142;-0.974;2022-08-11T05:36:49;100771.34;;;13.84;89.92
51439;BME280;38816;51.142;-0.974;2022-08-11T05:39:23;100787.94;;;14.03;90.24
51439;BME280;38816;51.142;-0.974;2022-08-11T05:42:07;100775.91;;;14.07;90.55
51439;BME280;38816;51.142;-0.974;2022-08-11T05:44:54;100790.72;;;14.22;90.17
51439;BME280;38816;51.142;-0.974;2022-08-11T05:47:41;100778.66;;;14.21;90.17
51439;BME280;38816;51.142;-0.974;2022-08-11T05:50:26;100788.13;;;14.20;89.79
51439;BME280;38816;51.142;-0.974;2022-08-11T05:53:12;100781.13;;;14.11;88.97
51439;BME280;38816;51.142;-0.974;2022-08-11T05:55:57;100793.19;;;14.11;89.47
51439;BME280;38816;51.142;-0.974;2022-08-11T05:58:46;100789.72;;;14.09;90.83
51439;BME280;38816;51.142;-0.974;2022-08-11T06:01:20;100794.25;;;14.31;92.65
51439;BME280;38816;51.142;-0.974;2022-08-11T06:03:49;100793.59;;;14.49;93.06
51439;BME280;38816;51.142;-0.974;2022-08-11T06:06:33;100775.59;;;14.61;93.08
51439;BME280;38816;51.142;-0.974;2022-08-11T06:09:01;100786.91;;;14.71;92.41
51439;BME280;38816;51.142;-0.974;2022-08-11T06:11:27;100788.69;;;14.81;92.37
51439;BME280;38816;51.142;-0.974;2022-08-11T06:13:55;100791.34;;;14.87;92.03
51439;BME280;38816;51.142;-0.974;2022-08-11T06:16:25;100783.63;;;14.93;92.03
51439;BME280;38816;51.142;-0.974;2022-08-11T06:18:52;100792.31;;;15.02;91.98
51439;BME280;38816;51.142;-0.974;2022-08-11T06:21:20;100783.72;;;15.04;92.52
51439;BME280;38816;51.142;-0.974;2022-08-11T06:23:46;100793.25;;;15.14;92.87
51439;BME280;38816;51.142;-0.974;2022-08-11T06:26:13;100785.53;;;15.19;93.05
51439;BME280;38816;51.142;-0.974;2022-08-11T06:28:41;100795.94;;;15.28;93.05
51439;BME280;38816;51.142;-0.974;2022-08-11T06:31:20;100783.00;;;15.33;93.27
51439;BME280;38816;51.142;-0.974;2022-08-11T06:36:27;100784.88;;;15.58;93.58
51439;BME280;38816;51.142;-0.974;2022-08-11T06:39:26;100792.78;;;15.84;93.69
51439;BME280;38816;51.142;-0.974;2022-08-11T06:42:02;100785.06;;;16.03;94.05
51439;BME280;38816;51.142;-0.974;2022-08-11T06:44:32;100782.50;;;16.15;93.53
51439;BME280;38816;51.142;-0.974;2022-08-11T06:47:07;100792.03;;;16.39;93.57
51439;BME280;38816;51.142;-0.974;2022-08-11T06:49:36;100801.59;;;16.54;92.93
51439;BME280;38816;51.142;-0.974;2022-08-11T06:52:31;100791.22;;;16.63;92.26
51439;BME280;38816;51.142;-0.974;2022-08-11T06:55:00;100788.66;;;16.74;91.71
51439;BME280;38816;51.142;-0.974;2022-08-11T06:57:35;100803.34;;;16.88;90.98
51439;BME280;38816;51.142;-0.974;2022-08-11T07:00:20;100804.22;;;17.01;90.52
51439;BME280;38816;51.142;-0.974;2022-08-11T07:03:09;100806.78;;;17.15;89.41
51439;BME280;38816;51.142;-0.974;2022-08-11T07:05:52;100795.53;;;17.30;88.68
51439;BME280;38816;51.142;-0.974;2022-08-11T07:12:00;100810.16;;;17.58;86.79
51439;BME280;38816;51.142;-0.974;2022-08-11T07:14:51;100802.34;;;17.66;85.92
51439;BME280;38816;51.142;-0.974;2022-08-11T07:17:44;100794.50;;;17.78;85.74
51439;BME280;38816;51.142;-0.974;2022-08-11T07:20:14;100801.41;;;17.90;84.93
51439;BME280;38816;51.142;-0.974;2022-08-11T07:23:01;100794.47;;;17.93;84.68
51439;BME280;38816;51.142;-0.974;2022-08-11T07:25:49;100796.09;;;18.10;84.38
51439;BME280;38816;51.142;-0.974;2022-08-11T07:28:38;100793.38;;;18.31;83.20
51439;BME280;38816;51.142;-0.974;2022-08-11T07:31:41;100788.06;;;18.45;81.97
51439;BME280;38816;51.142;-0.974;2022-08-11T07:34:33;100797.53;;;18.57;81.33
51439;BME280;38816;51.142;-0.974;2022-08-11T07:37:07;100790.56;;;18.62;81.10
51439;BME280;38816;51.142;-0.974;2022-08-11T07:39:35;100793.13;;;18.69;80.48
51439;BME280;38816;51.142;-0.974;2022-08-11T07:42:07;100797.38;;;18.81;79.81
51439;BME280;38816;51.142;-0.974;2022-08-11T07:44:33;100793.88;;;18.87;79.27
51439;BME280;38816;51.142;-0.974;2022-08-11T07:47:20;100788.56;;;18.96;78.92
51439;BME280;38816;51.142;-0.974;2022-08-11T07:50:07;100789.31;;;19.07;78.71
51439;BME280;38816;51.142;-0.974;2022-08-11T07:52:53;100792.72;;;19.15;78.14
51439;BME280;38816;51.142;-0.974;2022-08-11T07:55:21;100786.50;;;19.29;77.94
51439;BME280;38816;51.142;-0.974;2022-08-11T07:57:49;100783.72;;;19.44;76.74
51439;BME280;38816;51.142;-0.974;2022-08-11T08:00:49;100795.75;;;19.54;76.62
51439;BME280;38816;51.142;-0.974;2022-08-11T08:03:33;100779.16;;;19.66;75.77
51439;BME280;38816;51.142;-0.974;2022-08-11T08:06:18;100777.31;;;19.74;75.55
51439;BME280;38816;51.142;-0.974;2022-08-11T08:09:03;100771.97;;;19.83;75.26
51439;BME280;38816;51.142;-0.974;2022-08-11T08:11:48;100778.78;;;19.95;74.53
51439;BME280;38816;51.142;-0.974;2022-08-11T08:14:33;100779.50;;;20.03;73.98
51439;BME280;38816;51.142;-0.974;2022-08-11T08:17:19;100784.50;;;20.20;73.04
51439;BME280;38816;51.142;-0.974;2022-08-11T08:20:04;100764.25;;;20.34;72.05
51439;BME280;38816;51.142;-0.974;2022-08-11T08:22:32;100778.75;;;20.58;71.28
51439;BME280;38816;51.142;-0.974;2022-08-11T08:24:59;100773.38;;;20.67;70.47
51439;BME280;38816;51.142;-0.974;2022-08-11T08:27:25;100774.84;;;20.82;70.11
51439;BME280;38816;51.142;-0.974;2022-08-11T08:29:51;100776.41;;;20.92;69.49
51439;BME280;38816;51.142;-0.974;2022-08-11T08:32:38;100764.84;;;21.06;68.12
51439;BME280;38816;51.142;-0.974;2022-08-11T08:35:05;100768.06;;;21.20;67.47
51439;BME280;38816;51.142;-0.974;2022-08-11T08:37:32;100762.72;;;21.26;66.96
51439;BME280;38816;51.142;-0.974;2022-08-11T08:39:57;100764.25;;;21.39;66.44
51439;BME280;38816;51.142;-0.974;2022-08-11T08:42:26;100764.06;;;21.48;66.31
51439;BME280;38816;51.142;-0.974;2022-08-11T08:45:04;100769.03;;;21.61;65.46
51439;BME280;38816;51.142;-0.974;2022-08-11T08:47:30;100768.97;;;21.64;64.46
51439;BME280;38816;51.142;-0.974;2022-08-11T08:50:03;100767.00;;;21.73;63.61
51439;BME280;38816;51.142;-0.974;2022-08-11T08:52:33;100770.28;;;21.85;63.19
51439;BME280;38816;51.142;-0.974;2022-08-11T08:55:04;100773.50;;;21.97;62.40
51439;BME280;38816;51.142;-0.974;2022-08-11T08:57:34;100767.97;;;22.10;62.18
51439;BME280;38816;51.142;-0.974;2022-08-11T09:00:01;100754.84;;;22.13;61.64
51439;BME280;38816;51.142;-0.974;2022-08-11T09:02:27;100751.91;;;22.27;61.01
51439;BME280;38816;51.142;-0.974;2022-08-11T09:04:52;100765.47;;;22.42;60.63
51439;BME280;38816;51.142;-0.974;2022-08-11T09:07:21;100756.63;;;22.48;60.33
51439;BME280;38816;51.142;-0.974;2022-08-11T09:09:52;100764.94;;;22.65;60.15
51439;BME280;38816;51.142;-0.974;2022-08-11T09:12:19;100754.09;;;22.79;59.50
51439;BME280;38816;51.142;-0.974;2022-08-11T09:14:49;100758.78;;;23.02;58.43
51439;BME280;38816;51.142;-0.974;2022-08-11T09:17:26;100755.78;;;23.16;58.22
51439;BME280;38816;51.142;-0.974;2022-08-11T09:20:05;100755.59;;;23.22;57.22
51439;BME280;38816;51.142;-0.974;2022-08-11T09:22:34;100763.06;;;23.37;57.42
51439;BME280;38816;51.142;-0.974;2022-08-11T09:25:19;100752.75;;;23.61;57.42
51439;BME280;38816;51.142;-0.974;2022-08-11T09:28:04;100748.56;;;23.85;55.11
51439;BME280;38816;51.142;-0.974;2022-08-11T09:30:34;100743.72;;;24.00;54.96
51439;BME280;38816;51.142;-0.974;2022-08-11T09:33:01;100748.84;;;24.04;54.91
51439;BME280;38816;51.142;-0.974;2022-08-11T09:35:30;100741.31;;;24.21;54.83
51439;BME280;38816;51.142;-0.974;2022-08-11T09:37:57;100748.47;;;24.44;54.15
51439;BME280;38816;51.142;-0.974;2022-08-11T09:40:46;100737.94;;;24.70;52.74
51439;BME280;38816;51.142;-0.974;2022-08-11T09:43:14;100748.66;;;24.91;52.77
51439;BME280;38816;51.142;-0.974;2022-08-11T09:46:00;100734.16;;;25.04;52.13
51439;BME280;38816;51.142;-0.974;2022-08-11T09:48:29;100729.13;;;25.23;51.62
51439;BME280;38816;51.142;-0.974;2022-08-11T09:50:58;100722.84;;;25.27;50.77
51439;BME280;38816;51.142;-0.974;2022-08-11T09:53:26;100733.78;;;25.40;48.79
51439;BME280;38816;51.142;-0.974;2022-08-11T09:55:54;100731.50;;;25.52;48.93
51439;BME280;38816;51.142;-0.974;2022-08-11T09:58:20;100727.00;;;25.56;48.45
51439;BME280;38816;51.142;-0.974;2022-08-11T10:00:48;100725.19;;;25.58;47.53
51439;BME280;38816;51.142;-0.974;2022-08-11T10:05:47;100732.41;;;25.75;45.09
51439;BME280;38816;51.142;-0.974;2022-08-11T10:08:35;100721.50;;;25.86;43.89
51439;BME280;38816;51.142;-0.974;2022-08-11T10:11:02;100723.13;;;26.12;44.12
51439;BME280;38816;51.142;-0.974;2022-08-11T10:13:32;100717.88;;;26.32;43.81
51439;BME280;38816;51.142;-0.974;2022-08-11T10:16:20;100715.69;;;26.43;43.60
51439;BME280;38816;51.142;-0.974;2022-08-11T10:18:49;100726.72;;;26.53;42.42
51439;BME280;38816;51.142;-0.974;2022-08-11T10:21:28;100723.81;;;26.59;42.19
51439;BME280;38816;51.142;-0.974;2022-08-11T10:23:57;100716.34;;;26.69;40.96
51439;BME280;38816;51.142;-0.974;2022-08-11T10:26:43;100724.81;;;26.97;41.21
51439;BME280;38816;51.142;-0.974;2022-08-11T10:29:40;100698.53;;;27.15;40.24
51439;BME280;38816;51.142;-0.974;2022-08-11T10:32:27;100700.41;;;27.32;40.90
51439;BME280;38816;51.142;-0.974;2022-08-11T10:35:11;100702.41;;;27.45;40.29
51439;BME280;38816;51.142;-0.974;2022-08-11T10:37:40;100705.56;;;27.54;39.82
51439;BME280;38816;51.142;-0.974;2022-08-11T10:40:07;100686.28;;;27.51;39.37
51439;BME280;38816;51.142;-0.974;2022-08-11T10:42:35;100697.34;;;27.60;39.11
51439;BME280;38816;51.142;-0.974;2022-08-11T10:45:22;100696.03;;;27.68;38.39
51439;BME280;38816;51.142;-0.974;2022-08-11T10:48:07;100698.69;;;27.87;37.97
51439;BME280;38816;51.142;-0.974;2022-08-11T10:50:35;100699.81;;;28.00;37.57
51439;BME280;38816;51.142;-0.974;2022-08-11T10:53:20;100687.25;;;28.06;37.56
51439;BME280;38816;51.142;-0.974;2022-08-11T10:56:06;100701.53;;;28.19;37.72
51439;BME280;38816;51.142;-0.974;2022-08-11T10:58:51;100688.31;;;28.19;37.39
51439;BME280;38816;51.142;-0.974;2022-08-11T11:01:28;100691.31;;;28.30;37.26
51439;BME280;38816;51.142;-0.974;2022-08-11T11:03:57;100697.41;;;28.49;36.90
51439;BME280;38816;51.142;-0.974;2022-08-11T11:11:59;100685.88;;;28.68;35.69
51439;BME280;38816;51.142;-0.974;2022-08-11T11:14:44;100681.38;;;28.70;35.46
51439;BME280;38816;51.142;-0.974;2022-08-11T11:17:32;100682.69;;;28.79;34.83
51439;BME280;38816;51.142;-0.974;2022-08-11T11:20:22;100679.00;;;28.98;34.83
51439;BME280;38816;51.142;-0.974;2022-08-11T11:22:52;100680.22;;;29.09;34.50
51439;BME280;38816;51.142;-0.974;2022-08-11T11:25:29;100669.13;;;29.18;33.90
51439;BME280;38816;51.142;-0.974;2022-08-11T11:28:27;100683.75;;;29.25;34.37
51439;BME280;38816;51.142;-0.974;2022-08-11T11:31:10;100668.47;;;29.30;33.91
51439;BME280;38816;51.142;-0.974;2022-08-11T11:36:40;100679.31;;;29.59;33.07
51439;BME280;38816;51.142;-0.974;2022-08-11T11:39:09;100672.13;;;29.61;33.51
51439;BME280;38816;51.142;-0.974;2022-08-11T11:41:35;100672.44;;;29.70;33.75
51439;BME280;38816;51.142;-0.974;2022-08-11T11:44:01;100659.53;;;29.80;33.84
51439;BME280;38816;51.142;-0.974;2022-08-11T11:46:28;100659.94;;;29.88;33.70
51439;BME280;38816;51.142;-0.974;2022-08-11T11:48:54;100654.47;;;29.91;34.43
51439;BME280;38816;51.142;-0.974;2022-08-11T11:51:24;100659.06;;;30.04;33.53
51439;BME280;38816;51.142;-0.974;2022-08-11T11:53:50;100649.50;;;30.01;32.79
51439;BME280;38816;51.142;-0.974;2022-08-11T11:56:17;100657.06;;;30.07;32.42
51439;BME280;38816;51.142;-0.974;2022-08-11T11:58:43;100646.91;;;30.15;32.36
51439;BME280;38816;51.142;-0.974;2022-08-11T12:01:29;100651.44;;;30.43;30.84
51439;BME280;38816;51.142;-0.974;2022-08-11T12:03:56;100654.78;;;30.61;30.84
51439;BME280;38816;51.142;-0.974;2022-08-11T12:06:23;100640.38;;;30.65;30.86
51439;BME280;38816;51.142;-0.974;2022-08-11T12:08:54;100639.13;;;30.71;30.65
51439;BME280;38816;51.142;-0.974;2022-08-11T12:11:22;100640.91;;;30.72;30.74
51439;BME280;38816;51.142;-0.974;2022-08-11T12:14:07;100645.25;;;30.87;30.23
51439;BME280;38816;51.142;-0.974;2022-08-11T12:16:39;100646.59;;;30.94;30.64
51439;BME280;38816;51.142;-0.974;2022-08-11T12:19:08;100640.88;;;31.00;29.78
51439;BME280;38816;51.142;-0.974;2022-08-11T12:21:36;100638.91;;;31.04;29.95
51439;BME280;38816;51.142;-0.974;2022-08-11T12:24:22;100628.00;;;31.09;29.25
51439;BME280;38816;51.142;-0.974;2022-08-11T12:27:14;100622.47;;;31.26;28.66
51439;BME280;38816;51.142;-0.974;2022-08-11T12:29:53;100623.72;;;31.35;28.95
51439;BME280;38816;51.142;-0.974;2022-08-11T12:32:20;100613.41;;;31.43;28.95
51439;BME280;38816;51.142;-0.974;2022-08-11T12:34:47;100625.81;;;31.57;29.41
51439;BME280;38816;51.142;-0.974;2022-08-11T12:37:15;100630.97;;;31.45;27.92
51439;BME280;38816;51.142;-0.974;2022-08-11T12:39:46;100612.38;;;31.45;28.83
51439;BME280;38816;51.142;-0.974;2022-08-11T12:42:33;100609.53;;;31.48;28.11
51439;BME280;38816;51.142;-0.974;2022-08-11T12:45:18;100613.84;;;31.64;28.63
51439;BME280;38816;51.142;-0.974;2022-08-11T12:48:04;100614.94;;;31.74;28.38
51439;BME280;38816;51.142;-0.974;2022-08-11T12:50:57;100596.88;;;31.79;28.40
51439;BME280;38816;51.142;-0.974;2022-08-11T12:53:57;100604.28;;;31.74;26.60
51439;BME280;38816;51.142;-0.974;2022-08-11T12:56:27;100590.75;;;31.64;27.39
51439;BME280;38816;51.142;-0.974;2022-08-11T12:59:15;100589.00;;;31.77;27.19
51439;BME280;38816;51.142;-0.974;2022-08-11T13:01:59;100581.63;;;31.95;27.43
51439;BME280;38816;51.142;-0.974;2022-08-11T13:04:45;100597.09;;;32.16;28.70
51439;BME280;38816;51.142;-0.974;2022-08-11T13:07:20;100593.50;;;32.30;28.05
51439;BME280;38816;51.142;-0.974;2022-08-11T13:09:47;100580.41;;;32.26;26.77
51439;BME280;38816;51.142;-0.974;2022-08-11T13:12:14;100580.22;;;32.42;26.67
51439;BME280;38816;51.142;-0.974;2022-08-11T13:14:59;100574.25;;;32.51;26.70
51439;BME280;38816;51.142;-0.974;2022-08-11T13:17:26;100564.47;;;32.39;25.61
51439;BME280;38816;51.142;-0.974;2022-08-11T13:19:56;100563.91;;;32.34;27.17
51439;BME280;38816;51.142;-0.974;2022-08-11T13:22:22;100567.66;;;32.44;27.06
51439;BME280;38816;51.142;-0.974;2022-08-11T13:24:50;100564.88;;;32.59;26.48
51439;BME280;38816;51.142;-0.974;2022-08-11T13:27:20;100565.50;;;32.62;27.08
51439;BME280;38816;51.142;-0.974;2022-08-11T13:29:46;100552.19;;;32.62;26.62
51439;BME280;38816;51.142;-0.974;2022-08-11T13:32:14;100542.28;;;32.64;26.10
51439;BME280;38816;51.142;-0.974;2022-08-11T13:34:40;100551.34;;;32.62;25.81
51439;BME280;38816;51.142;-0.974;2022-08-11T13:37:09;100553.25;;;32.60;26.64
51439;BME280;38816;51.142;-0.974;2022-08-11T13:39:36;100546.34;;;32.70;24.99
51439;BME280;38816;51.142;-0.974;2022-08-11T13:42:03;100542.41;;;32.63;26.70
51439;BME280;38816;51.142;-0.974;2022-08-11T13:44:32;100543.88;;;32.80;26.17
51439;BME280;38816;51.142;-0.974;2022-08-11T13:47:01;100551.63;;;32.95;26.22
51439;BME280;38816;51.142;-0.974;2022-08-11T13:49:30;100545.19;;;33.11;26.46
51439;BME280;38816;51.142;-0.974;2022-08-11T13:51:56;100550.81;;;33.19;25.35
51439;BME280;38816;51.142;-0.974;2022-08-11T13:54:34;100546.22;;;33.21;24.52
51439;BME280;38816;51.142;-0.974;2022-08-11T13:57:04;100552.59;;;33.18;24.79
51439;BME280;38816;51.142;-0.974;2022-08-11T13:59:31;100549.09;;;33.18;25.42
51439;BME280;38816;51.142;-0.974;2022-08-11T14:02:06;100547.56;;;33.03;25.49
51439;BME280;38816;51.142;-0.974;2022-08-11T14:04:39;100537.28;;;33.09;25.92
51439;BME280;38816;51.142;-0.974;2022-08-11T14:07:08;100549.91;;;33.31;25.59
51439;BME280;38816;51.142;-0.974;2022-08-11T14:09:36;100531.25;;;33.31;25.69
51439;BME280;38816;51.142;-0.974;2022-08-11T14:12:09;100536.13;;;33.37;24.64
51439;BME280;38816;51.142;-0.974;2022-08-11T14:15:02;100532.56;;;33.25;25.25
51439;BME280;38816;51.142;-0.974;2022-08-11T14:17:31;100534.06;;;33.17;24.85
51439;BME280;38816;51.142;-0.974;2022-08-11T14:20:02;100544.28;;;33.23;25.53
51439;BME280;38816;51.142;-0.974;2022-08-11T14:22:29;100527.84;;;33.29;24.95
51439;BME280;38816;51.142;-0.974;2022-08-11T14:24:56;100527.59;;;33.32;24.95
51439;BME280;38816;51.142;-0.974;2022-08-11T14:27:22;100533.75;;;33.45;25.29
51439;BME280;38816;51.142;-0.974;2022-08-11T14:29:56;100527.13;;;33.51;25.06
51439;BME280;38816;51.142;-0.974;2022-08-11T14:32:22;100528.97;;;33.62;24.87
51439;BME280;38816;51.142;-0.974;2022-08-11T14:34:49;100517.69;;;33.58;23.80
51439;BME280;38816;51.142;-0.974;2022-08-11T14:37:20;100517.41;;;33.50;24.60
51439;BME280;38816;51.142;-0.974;2022-08-11T14:39:51;100517.13;;;33.42;24.24
51439;BME280;38816;51.142;-0.974;2022-08-11T14:42:19;100518.16;;;33.28;24.03
51439;BME280;38816;51.142;-0.974;2022-08-11T14:45:06;100505.06;;;33.25;24.19
51439;BME280;38816;51.142;-0.974;2022-08-11T14:47:53;100507.31;;;33.42;24.48
51439;BME280;38816;51.142;-0.974;2022-08-11T14:50:27;100495.91;;;33.40;23.72
51439;BME280;38816;51.142;-0.974;2022-08-11T14:53:03;100503.50;;;33.46;24.02
51439;BME280;38816;51.142;-0.974;2022-08-11T14:55:34;100500.34;;;33.53;24.45
51439;BME280;38816;51.142;-0.974;2022-08-11T14:58:22;100498.34;;;33.67;24.31
51439;BME280;38816;51.142;-0.974;2022-08-11T15:00:53;100499.94;;;33.70;24.88
51439;BME280;38816;51.142;-0.974;2022-08-11T15:03:21;100496.06;;;33.85;25.11
51439;BME280;38816;51.142;-0.974;2022-08-11T15:05:49;100489.75;;;33.75;23.27
51439;BME280;38816;51.142;-0.974;2022-08-11T15:08:16;100489.13;;;33.71;22.70
51439;BME280;38816;51.142;-0.974;2022-08-11T15:10:44;100494.94;;;33.65;22.35
51439;BME280;38816;51.142;-0.974;2022-08-11T15:13:10;100494.91;;;33.54;23.26
51439;BME280;38816;51.142;-0.974;2022-08-11T15:15:36;100482.88;;;33.48;22.81
51439;BME280;38816;51.142;-0.974;2022-08-11T15:18:22;100490.47;;;33.66;23.32
51439;BME280;38816;51.142;-0.974;2022-08-11T15:20:49;100490.22;;;33.69;22.40
51439;BME280;38816;51.142;-0.974;2022-08-11T15:23:34;100486.69;;;33.68;22.79
51439;BME280;38816;51.142;-0.974;2022-08-11T15:26:25;100482.47;;;33.66;22.84
51439;BME280;38816;51.142;-0.974;2022-08-11T15:29:14;100474.88;;;33.48;22.82
51439;BME280;38816;51.142;-0.974;2022-08-11T15:32:03;100478.84;;;33.43;22.61
51439;BME280;38816;51.142;-0.974;2022-08-11T15:34:48;100483.56;;;33.39;22.31
51439;BME280;38816;51.142;-0.974;2022-08-11T15:37:33;100469.72;;;33.34;23.55
51439;BME280;38816;51.142;-0.974;2022-08-11T15:40:05;100489.41;;;33.44;22.96
51439;BME280;38816;51.142;-0.974;2022-08-11T15:45:54;100479.16;;;33.62;23.46
51439;BME280;38816;51.142;-0.974;2022-08-11T15:51:07;100468.28;;;33.76;23.26
51439;BME280;38816;51.142;-0.974;2022-08-11T15:56:02;100458.94;;;33.71;22.95
51439;BME280;38816;51.142;-0.974;2022-08-11T15:58:31;100454.38;;;33.73;23.06
51439;BME280;38816;51.142;-0.974;2022-08-11T16:01:19;100465.16;;;33.94;22.95
51439;BME280;38816;51.142;-0.974;2022-08-11T16:04:14;100453.94;;;34.01;22.24
51439;BME280;38816;51.142;-0.974;2022-08-11T16:06:59;100457.22;;;34.16;22.47
51439;BME280;38816;51.142;-0.974;2022-08-11T16:09:47;100461.94;;;34.24;22.44
51439;BME280;38816;51.142;-0.974;2022-08-11T16:12:18;100451.63;;;34.31;21.88
51439;BME280;38816;51.142;-0.974;2022-08-11T16:14:48;100450.53;;;34.44;21.53
51439;BME280;38816;51.142;-0.974;2022-08-11T16:17:39;100445.91;;;34.35;21.29
51439;BME280;38816;51.142;-0.974;2022-08-11T16:20:09;100449.81;;;34.42;21.97
51439;BME280;38816;51.142;-0.974;2022-08-11T16:22:37;100444.59;;;34.52;21.97
51439;BME280;38816;51.142;-0.974;2022-08-11T16:25:10;100434.03;;;34.62;20.59
51439;BME280;38816;51.142;-0.974;2022-08-11T16:27:50;100441.66;;;34.66;21.35
51439;BME280;38816;51.142;-0.974;2022-08-11T16:30:17;100434.84;;;34.73;21.61
51439;BME280;38816;51.142;-0.974;2022-08-11T16:32:45;100438.09;;;34.88;20.60
51439;BME280;38816;51.142;-0.974;2022-08-11T16:35:19;100428.63;;;34.84;20.78
51439;BME280;38816;51.142;-0.974;2022-08-11T16:38:05;100429.34;;;34.86;20.98
51439;BME280;38816;51.142;-0.974;2022-08-11T16:40:52;100436.72;;;34.94;20.82
51439;BME280;38816;51.142;-0.974;2022-08-11T16:43:21;100438.94;;;35.00;19.94